Terminal Aerodrome Forecast
Issued by NWS

Home | Current Version | Previous Version | Text Only | Print | Product List | Glossary On
Versions: 1 2 3 4 5 6 7 8 9 10 11 12 13 14 15 16 17 18
058
FTUS41 KBTV 260541
TAFMPV
TAF
KMPV 260541Z 2606/2706 25008KT P6SM SKC
     FM261200 29005KT P6SM SCT060
     FM261800 29006KT P6SM BKN050
     FM262200 29006KT P6SM VCSH BKN050
     FM270400 VRB04KT P6SM SCT050=

USA.gov is the U.S. government's official web portal to all federal, state and local government web resources and services.